KAXH

Houston-Southwest Airport

Houston, Texas, USA
METAR KAXH 231055Z AUTO 00000KT 3SM BR SCT016 20/20 A2998 RMK AO2 T02000200
Observed Flight Rules
May-23 @ 10:55 UTC (20 minutes ago) Marginal Visual Flight Rules
Visibility Clouds Conditions
3 miles
  • Scattered at 1,600' AGL
  • Mist
Temperatures Readings
Current 20°C / 68°F
Dewpoint 20°C / 68°F
Humidity 100%
Altimeter 29.98" Hg
Pressure 1015 hPa
Elevation 21
METAR KAXH 231055Z AUTO 00000KT 3SM BR SCT016 20/20 A2998 RMK AO2 T02000200
Observed Flight Rules
May-23 @ 10:55 UTC
(20 minutes ago)
MVFR
Clouds
  • Scattered at 1,600' AGL
Conditions
  • Mist
Temperature Dewpoint
20°C / 68°F 20°C / 68°F
Humidity Altimeter Pressure
100% 29.98" Hg 1015 hPa